Jeff Brumfield — WDE3528 — position and weather

sailwx.info

Track history (hours):
 
Tides and Currents Weather Stations Pressure Air Temp Water Temp Dewpoint Dewpoint Depression Visibility Wind Speed Wind Dir Waves Ship Positions

Jeff Brumfield

Owner: Florida Marine Transporters, Inc., Mandeville, LA. More information available from US FCC via Universal Licensing System and Coast Guard Vessel Documentation Center.

Last reported at 2017-Dec-16 23:28 UTC. Time now 2017-Dec-18 05:11 UTC.
Position N 30°01' W 093°59'.

Length 27 m; draft 3.2 m.

Type: Towing. MMSI: 367340440.

Date/timePositionNaut miles runAvg speedWind from/ knotsBaromVisibWave heightAir tempDewpointWater temp
2017-Dec-16 23:28N 30°01' W 093°59'0 0.0
2017-Dec-16 12:40N 30°01' W 093°59'0 0.0
2017-Dec-16 12:20N 30°01' W 093°59'0 0.0
2017-Dec-16 11:59N 30°01' W 093°59'16 1.1
2017-Dec-15 20:48N 30°04' W 093°40'2 6.2
2017-Dec-15 20:29N 30°04' W 093°38'3 5.4
2017-Dec-15 20:00N 30°04' W 093°35'3 5.6
2017-Dec-15 19:30N 30°04' W 093°32'3 5.6
2017-Dec-15 19:01N 30°04' W 093°29'3 5.5
2017-Dec-15 18:30N 30°04' W 093°26'3 5.6
2017-Dec-15 18:00N 30°04' W 093°22'2 3.6
2017-Dec-15 17:30N 30°04' W 093°21'0 0.6
2017-Dec-15 17:00N 30°04' W 093°21'0 0.0
2017-Dec-15 16:31N 30°04' W 093°21'0 0.0
2017-Dec-15 16:01N 30°04' W 093°21'0 0.0
2017-Dec-15 15:31N 30°04' W 093°21'0 0.0
2017-Dec-15 15:01N 30°04' W 093°21'0 0.0
2017-Dec-15 14:31N 30°04' W 093°21'0 0.0
2017-Dec-15 14:00N 30°04' W 093°21'0 0.0
2017-Dec-15 13:30N 30°04' W 093°21'0 0.0
2017-Dec-15 13:00N 30°04' W 093°21'0 0.0
2017-Dec-15 12:30N 30°04' W 093°21'0 0.0
2017-Dec-15 12:00N 30°04' W 093°21'0 0.0
2017-Dec-15 11:31N 30°04' W 093°21'0 0.0
2017-Dec-15 11:01N 30°04' W 093°21'0 0.0
2017-Dec-15 10:30N 30°04' W 093°21'0 0.0
2017-Dec-15 10:01N 30°04' W 093°21'0 0.0
2017-Dec-15 09:31N 30°04' W 093°21'0 0.0
2017-Dec-15 09:01N 30°04' W 093°21'0 0.0
2017-Dec-15 08:30N 30°04' W 093°21'0 0.0
2017-Dec-15 08:01N 30°04' W 093°21'0 0.0
2017-Dec-15 07:30N 30°04' W 093°21'0 0.0
2017-Dec-15 07:00N 30°04' W 093°21'0 0.0
2017-Dec-15 06:31N 30°04' W 093°21'0 0.0
2017-Dec-15 06:00N 30°04' W 093°21'0 0.0
2017-Dec-15 05:30N 30°04' W 093°21'0 0.0
2017-Dec-15 05:01N 30°04' W 093°21'0 0.0
2017-Dec-15 04:31N 30°04' W 093°21'0 0.0
2017-Dec-15 04:01N 30°04' W 093°21'0 0.0
2017-Dec-15 02:31N 30°04' W 093°21'0 0.0
2017-Dec-15 01:01N 30°04' W 093°21'0 0.0
2017-Dec-15 00:30N 30°04' W 093°21'0 0.0
2017-Dec-14 18:28N 30°04' W 093°21'0 0.0
2017-Dec-14 18:00N 30°04' W 093°21'0 0.0
2017-Dec-14 17:31N 30°04' W 093°21'0 0.0
2017-Dec-14 17:00N 30°04' W 093°21'0 0.0
2017-Dec-14 16:30N 30°04' W 093°21'0 0.0
2017-Dec-14 16:01N 30°04' W 093°21'0 0.0
2017-Dec-14 14:53N 30°04' W 093°21'0 0.0
2017-Dec-14 14:25N 30°04' W 093°21'0 0.0
2017-Dec-14 14:01N 30°04' W 093°21'0 0.0
2017-Dec-14 13:29N 30°04' W 093°21'0 0.0
2017-Dec-14 13:01N 30°04' W 093°21'0 0.0
2017-Dec-14 12:31N 30°04' W 093°21'0 0.0
2017-Dec-14 12:01N 30°04' W 093°21'0 0.0
2017-Dec-14 11:30N 30°04' W 093°21'0 0.0
2017-Dec-14 11:00N 30°04' W 093°21'0 0.0
2017-Dec-14 10:30N 30°04' W 093°21'0 0.0
2017-Dec-14 09:58N 30°04' W 093°21'0 0.0
2017-Dec-14 09:31N 30°04' W 093°21'0 0.0
2017-Dec-14 09:01N 30°04' W 093°21'0 0.0
2017-Dec-14 08:31N 30°04' W 093°21'0 0.0
2017-Dec-14 08:00N 30°04' W 093°21'0 0.0
2017-Dec-14 07:31N 30°04' W 093°21'0 0.0
2017-Dec-14 06:59N 30°04' W 093°21'0 0.0
2017-Dec-14 06:30N 30°04' W 093°21'0 0.0
2017-Dec-14 06:01N 30°04' W 093°21'0 0.0
2017-Dec-14 05:31N 30°04' W 093°21'0 0.0
2017-Dec-14 05:01N 30°04' W 093°21'0 0.0
2017-Dec-14 04:31N 30°04' W 093°21'0 0.0
2017-Dec-14 04:00N 30°04' W 093°21'0 0.0
2017-Dec-14 03:30N 30°04' W 093°21'0 0.0
2017-Dec-14 03:00N 30°04' W 093°21'0 0.0
2017-Dec-14 02:31N 30°04' W 093°21'0 0.0
2017-Dec-14 02:01N 30°04' W 093°21'0 0.0
2017-Dec-14 01:30N 30°04' W 093°21'0 0.0
2017-Dec-14 01:01N 30°04' W 093°21'0 0.0
2017-Dec-14 00:30N 30°04' W 093°21'0 0.0
2017-Dec-14 00:00N 30°04' W 093°21'0 0.0
2017-Dec-13 23:31N 30°04' W 093°21'0 0.0
2017-Dec-13 23:01N 30°04' W 093°21'0 0.0
2017-Dec-13 22:30N 30°04' W 093°21'0 0.0
2017-Dec-13 22:01N 30°04' W 093°21'0 0.0
2017-Dec-13 21:30N 30°04' W 093°21'0 0.0
2017-Dec-13 21:00N 30°04' W 093°21'0 0.0
2017-Dec-13 20:30N 30°04' W 093°21'0 0.0
2017-Dec-13 20:01N 30°04' W 093°21'0 0.0
2017-Dec-13 19:31N 30°04' W 093°21'0 0.0
2017-Dec-13 19:00N 30°04' W 093°21'0 0.0
2017-Dec-13 18:31N 30°04' W 093°21'0 0.0
2017-Dec-13 18:00N 30°04' W 093°21'0 0.0
2017-Dec-13 17:31N 30°04' W 093°21'1 1.2
2017-Dec-13 17:01N 30°04' W 093°21'0 0.0
2017-Dec-13 16:31N 30°04' W 093°21'0 0.0
2017-Dec-13 16:01N 30°04' W 093°21'0 0.0
2017-Dec-13 15:31N 30°04' W 093°21'0 0.0
2017-Dec-13 15:01N 30°04' W 093°21'0 0.0
2017-Dec-13 14:31N 30°04' W 093°21'0 0.5
2017-Dec-13 14:00N 30°04' W 093°21'0 0.7
2017-Dec-13 13:30N 30°04' W 093°21'0 0.0
2017-Dec-13 13:01N 30°04' W 093°21'0 0.0
2017-Dec-13 12:31N 30°04' W 093°21'0 0.0
2017-Dec-13 12:01N 30°04' W 093°21'0 0.0
2017-Dec-13 11:31N 30°04' W 093°21'0 0.0
2017-Dec-13 11:01N 30°04' W 093°21'0 0.0
2017-Dec-13 10:31N 30°04' W 093°21'0 0.0
2017-Dec-13 10:01N 30°04' W 093°21'0 0.0
2017-Dec-13 09:30N 30°04' W 093°21'0 0.0
2017-Dec-13 09:00N 30°04' W 093°21'0 0.0
2017-Dec-13 08:31N 30°04' W 093°21'0 0.0
2017-Dec-13 08:01N 30°04' W 093°21'0 0.0
2017-Dec-13 07:30N 30°04' W 093°21'0 0.0
2017-Dec-13 07:01N 30°04' W 093°21'0 0.0
2017-Dec-13 06:30N 30°04' W 093°21'0 0.0
2017-Dec-13 06:01N 30°04' W 093°21'0 0.0
2017-Dec-13 05:30N 30°04' W 093°21'0 0.0
2017-Dec-13 05:01N 30°04' W 093°21'0 0.0
2017-Dec-13 04:30N 30°04' W 093°21'0 0.0
2017-Dec-13 04:01N 30°04' W 093°21'0 0.0
2017-Dec-13 03:30N 30°04' W 093°21'0 0.0
2017-Dec-13 03:00N 30°04' W 093°21'0 0.0
2017-Dec-13 02:31N 30°04' W 093°21'0 0.0
2017-Dec-13 02:01N 30°04' W 093°21'0 0.0
2017-Dec-13 01:30N 30°04' W 093°21'0 0.0
2017-Dec-13 01:01N 30°04' W 093°21'0 0.0
2017-Dec-13 00:31N 30°04' W 093°21'0 0.0
2017-Dec-13 00:00N 30°04' W 093°21'0 0.1
2017-Dec-12 23:30N 30°04' W 093°21'0 0.1
2017-Dec-12 23:00N 30°04' W 093°21'0 0.0
2017-Dec-12 22:30N 30°04' W 093°21'0 0.0
2017-Dec-12 22:00N 30°04' W 093°21'0 0.0
2017-Dec-12 21:30N 30°04' W 093°21'0 0.0
2017-Dec-12 21:01N 30°04' W 093°21'0 0.0
2017-Dec-12 20:31N 30°04' W 093°21'0 0.0
2017-Dec-12 20:01N 30°04' W 093°21'0 0.0
2017-Dec-12 19:30N 30°04' W 093°21'0 0.0
2017-Dec-12 19:01N 30°04' W 093°21'0 0.0
2017-Dec-12 18:31N 30°04' W 093°21'0 0.0
2017-Dec-12 18:00N 30°04' W 093°21'0 0.0
2017-Dec-12 17:30N 30°04' W 093°21'0 0.0
2017-Dec-12 17:00N 30°04' W 093°21'0 0.0
2017-Dec-12 16:31N 30°04' W 093°21'0 0.0
2017-Dec-12 16:01N 30°04' W 093°21'0 0.0
2017-Dec-12 15:30N 30°04' W 093°21'0 0.0
2017-Dec-12 15:01N 30°04' W 093°21'0 0.0
2017-Dec-12 14:31N 30°04' W 093°21'0 0.0
2017-Dec-12 14:00N 30°04' W 093°21'0 0.0
2017-Dec-12 13:30N 30°04' W 093°21'0 0.0
2017-Dec-12 13:01N 30°04' W 093°21'0 0.0
2017-Dec-12 12:31N 30°04' W 093°21'0 0.0
2017-Dec-12 12:01N 30°04' W 093°21'0 0.0
2017-Dec-12 11:07N 30°04' W 093°21'0 0.0
2017-Dec-12 11:00N 30°04' W 093°21'0 0.0
2017-Dec-12 10:31N 30°04' W 093°21'0 0.0
2017-Dec-12 10:01N 30°04' W 093°21'0 0.0
2017-Dec-12 08:48N 30°04' W 093°21'4 0.3
2017-Dec-11 20:33N 30°08' W 093°19'0 0.0
2017-Dec-11 19:40N 30°08' W 093°19'0 0.0
2017-Dec-11 19:30N 30°08' W 093°19'0 0.0
2017-Dec-11 19:00N 30°08' W 093°19'0 0.0
2017-Dec-11 18:30N 30°08' W 093°19'0 0.0
2017-Dec-11 18:00N 30°08' W 093°19'0 0.0
2017-Dec-11 17:31N 30°08' W 093°19'0 0.0
2017-Dec-11 17:01N 30°08' W 093°19'0 0.0
2017-Dec-11 16:30N 30°08' W 093°19'0 0.0
2017-Dec-11 16:00N 30°08' W 093°19'0 0.0
2017-Dec-11 15:31N 30°08' W 093°19'0 0.3
2017-Dec-11 14:29N 30°08' W 093°20'0 0.0
2017-Dec-11 14:01N 30°08' W 093°20'0 0.0
2017-Dec-11 13:31N 30°08' W 093°20'0 0.0
2017-Dec-11 13:00N 30°08' W 093°20'0 0.0
2017-Dec-11 12:30N 30°08' W 093°20'0 0.2
2017-Dec-11 12:01N 30°08' W 093°20'2 3.2
2017-Dec-11 11:31N 30°06' W 093°20'2 3.3
2017-Dec-11 11:00N 30°05' W 093°20'0 0.1
2017-Dec-11 10:31N 30°05' W 093°20'0 0.0
2017-Dec-11 10:01N 30°05' W 093°20'0 0.0
2017-Dec-11 09:30N 30°05' W 093°20'0 0.0
2017-Dec-11 09:01N 30°05' W 093°20'0 0.0
2017-Dec-11 08:31N 30°05' W 093°20'0 0.0
2017-Dec-11 08:01N 30°05' W 093°20'0 0.0
2017-Dec-11 07:30N 30°05' W 093°20'0 0.0
2017-Dec-11 07:00N 30°05' W 093°20'0 0.0
2017-Dec-11 06:31N 30°05' W 093°20'0 0.0
2017-Dec-11 06:01N 30°05' W 093°20'0 0.0
2017-Dec-11 05:31N 30°05' W 093°20'0 0.0
2017-Dec-11 05:00N 30°05' W 093°20'0 0.0
2017-Dec-11 04:31N 30°05' W 093°20'0 0.0
2017-Dec-11 04:00N 30°05' W 093°20'0 0.0
2017-Dec-11 03:31N 30°05' W 093°20'0 0.0
2017-Dec-11 03:01N 30°05' W 093°20'0 0.0
2017-Dec-11 02:31N 30°05' W 093°20'0 0.0
2017-Dec-11 02:01N 30°05' W 093°20'0 0.0
2017-Dec-11 01:30N 30°05' W 093°20'0 0.0
2017-Dec-11 01:01N 30°05' W 093°20'0 0.0
2017-Dec-11 00:30N 30°05' W 093°20'0 0.0
2017-Dec-11 00:00N 30°05' W 093°20'0 0.0
2017-Dec-10 23:30N 30°05' W 093°20'0 0.0
2017-Dec-10 23:00N 30°05' W 093°20'0 0.0
2017-Dec-10 22:31N 30°05' W 093°20'0 0.0
2017-Dec-10 22:01N 30°05' W 093°20'0 0.0
2017-Dec-10 21:31N 30°05' W 093°20'0 0.0
2017-Dec-10 21:01N 30°05' W 093°20'0 0.0
2017-Dec-10 20:31N 30°05' W 093°20'0 0.0
2017-Dec-10 20:01N 30°05' W 093°20'0 0.0
2017-Dec-10 19:30N 30°05' W 093°20'0 0.0
2017-Dec-10 19:00N 30°05' W 093°20'0 0.0
2017-Dec-10 18:31N 30°05' W 093°20'0 0.0
2017-Dec-10 18:00N 30°05' W 093°20'0 0.0
2017-Dec-10 17:30N 30°05' W 093°20'0 0.0
2017-Dec-10 17:01N 30°05' W 093°20'0 0.0
2017-Dec-10 16:30N 30°05' W 093°20'0 0.0
2017-Dec-10 16:00N 30°05' W 093°20'0 0.0
2017-Dec-10 15:31N 30°05' W 093°20'0 0.0
2017-Dec-10 15:00N 30°05' W 093°20'0 0.0
2017-Dec-10 14:31N 30°05' W 093°20'0 0.0
2017-Dec-10 14:00N 30°05' W 093°20'0 0.0
2017-Dec-10 13:31N 30°05' W 093°20'0 0.0
2017-Dec-10 13:00N 30°05' W 093°20'0 0.0
2017-Dec-10 12:30N 30°05' W 093°20'0 0.0
2017-Dec-10 12:01N 30°05' W 093°20'0 0.0
2017-Dec-10 11:31N 30°05' W 093°20'0 0.0
2017-Dec-10 11:01N 30°05' W 093°20'0 0.0
2017-Dec-10 10:30N 30°05' W 093°20'0 0.0
2017-Dec-10 10:01N 30°05' W 093°20'0 0.0
2017-Dec-10 09:31N 30°05' W 093°20'0 0.0
2017-Dec-10 09:00N 30°05' W 093°20'0 0.0
2017-Dec-10 08:31N 30°05' W 093°20'0 0.0
2017-Dec-10 08:01N 30°05' W 093°20'0 0.0
2017-Dec-10 07:31N 30°05' W 093°20'0 0.0
2017-Dec-10 07:01N 30°05' W 093°20'0 0.0
2017-Dec-10 06:30N 30°05' W 093°20'0 0.0
2017-Dec-10 06:01N 30°05' W 093°20'0 0.0
2017-Dec-10 05:31N 30°05' W 093°20'0 0.0
2017-Dec-10 05:01N 30°05' W 093°20'0 0.0
2017-Dec-10 04:31N 30°05' W 093°20'0 0.0
2017-Dec-10 04:01N 30°05' W 093°20'0 0.0
2017-Dec-10 03:31N 30°05' W 093°20'0 0.0
2017-Dec-10 03:01N 30°05' W 093°20'0 0.0
2017-Dec-10 02:31N 30°05' W 093°20'0 0.0
2017-Dec-10 02:00N 30°05' W 093°20'0 0.0
2017-Dec-10 01:31N 30°05' W 093°20'0 0.0
2017-Dec-10 01:00N 30°05' W 093°20'0 0.0
2017-Dec-10 00:30N 30°05' W 093°20'0 0.0
2017-Dec-10 00:00N 30°05' W 093°20'0 0.0
2017-Dec-09 23:30N 30°05' W 093°20'0 0.0
2017-Dec-09 23:01N 30°05' W 093°20'0 0.0
2017-Dec-09 22:31N 30°05' W 093°20'0 0.0
2017-Dec-09 22:01N 30°05' W 093°20'0 0.0
2017-Dec-09 21:31N 30°05' W 093°20'0 0.0
2017-Dec-09 21:01N 30°05' W 093°20'0 0.0
2017-Dec-09 20:30N 30°05' W 093°20'0 0.0
2017-Dec-09 20:01N 30°05' W 093°20'0 0.0
2017-Dec-09 19:30N 30°05' W 093°20'0 0.0
2017-Dec-09 19:00N 30°05' W 093°20'0 0.0
2017-Dec-09 18:31N 30°05' W 093°20'0 0.0
2017-Dec-09 18:01N 30°05' W 093°20'0 0.0
2017-Dec-09 17:31N 30°05' W 093°20'0 0.8
2017-Dec-09 17:00N 30°05' W 093°20'0 0.4
2017-Dec-09 16:31N 30°05' W 093°20'0 0.0
2017-Dec-09 16:00N 30°05' W 093°20'0 0.0
2017-Dec-09 15:31N 30°05' W 093°20'0 0.0
2017-Dec-09 15:00N 30°05' W 093°20'0 0.9
2017-Dec-09 14:31N 30°05' W 093°20'0 0.0
2017-Dec-09 14:01N 30°05' W 093°20'2 3.4
2017-Dec-09 13:31N 30°04' W 093°22'3 5.1
2017-Dec-09 13:00N 30°04' W 093°25'3 5.5
2017-Dec-09 12:31N 30°04' W 093°28'3 5.4
2017-Dec-09 12:00N 30°04' W 093°31'3 5.4
2017-Dec-09 11:31N 30°04' W 093°34'2 4.6
2017-Dec-09 11:01N 30°04' W 093°37'3 5.9
2017-Dec-09 10:30N 30°04' W 093°40'3 5.8
2017-Dec-09 10:00N 30°03' W 093°43'3 6.0
2017-Dec-09 09:31N 30°01' W 093°46'18 0.4
2017-Dec-07 13:28N 29°44' W 093°53'0 0.0
2017-Dec-07 12:58N 29°44' W 093°53'0 0.0
2017-Dec-07 12:30N 29°44' W 093°53'23 2.3
2017-Dec-07 02:32N 30°04' W 093°40'1 6.0
2017-Dec-07 02:24N 30°04' W 093°39'2 5.9
2017-Dec-07 02:01N 30°04' W 093°36'  
Track history (hours):
 
Tides and Currents Weather Stations Pressure Air Temp Water Temp Dewpoint Dewpoint Depression Visibility Wind Speed Wind Dir Waves Ship Positions

Jeff Brumfield

Owner: Florida Marine Transporters, Inc., Mandeville, LA. More information available from US FCC via Universal Licensing System and Coast Guard Vessel Documentation Center.

Last reported at 2017-Dec-16 23:28 UTC. Time now 2017-Dec-18 05:11 UTC.
Position N 30°01' W 093°59'.

Length 27 m; draft 3.2 m.

Type: Towing. MMSI: 367340440.

Date/timePositionNaut miles runAvg speedWind from/ knotsBaromVisibWave heightAir tempDewpointWater temp
2017-Dec-16 23:28N 30°01' W 093°59'0 0.0
2017-Dec-16 12:40N 30°01' W 093°59'0 0.0
2017-Dec-16 12:20N 30°01' W 093°59'0 0.0
2017-Dec-16 11:59N 30°01' W 093°59'16 1.1
2017-Dec-15 20:48N 30°04' W 093°40'2 6.2
2017-Dec-15 20:29N 30°04' W 093°38'3 5.4
2017-Dec-15 20:00N 30°04' W 093°35'3 5.6
2017-Dec-15 19:30N 30°04' W 093°32'3 5.6
2017-Dec-15 19:01N 30°04' W 093°29'3 5.5
2017-Dec-15 18:30N 30°04' W 093°26'3 5.6
2017-Dec-15 18:00N 30°04' W 093°22'2 3.6
2017-Dec-15 17:30N 30°04' W 093°21'0 0.6
2017-Dec-15 17:00N 30°04' W 093°21'0 0.0
2017-Dec-15 16:31N 30°04' W 093°21'0 0.0
2017-Dec-15 16:01N 30°04' W 093°21'0 0.0
2017-Dec-15 15:31N 30°04' W 093°21'0 0.0
2017-Dec-15 15:01N 30°04' W 093°21'0 0.0
2017-Dec-15 14:31N 30°04' W 093°21'0 0.0
2017-Dec-15 14:00N 30°04' W 093°21'0 0.0
2017-Dec-15 13:30N 30°04' W 093°21'0 0.0
2017-Dec-15 13:00N 30°04' W 093°21'0 0.0
2017-Dec-15 12:30N 30°04' W 093°21'0 0.0
2017-Dec-15 12:00N 30°04' W 093°21'0 0.0
2017-Dec-15 11:31N 30°04' W 093°21'0 0.0
2017-Dec-15 11:01N 30°04' W 093°21'0 0.0
2017-Dec-15 10:30N 30°04' W 093°21'0 0.0
2017-Dec-15 10:01N 30°04' W 093°21'0 0.0
2017-Dec-15 09:31N 30°04' W 093°21'0 0.0
2017-Dec-15 09:01N 30°04' W 093°21'0 0.0
2017-Dec-15 08:30N 30°04' W 093°21'0 0.0
2017-Dec-15 08:01N 30°04' W 093°21'0 0.0
2017-Dec-15 07:30N 30°04' W 093°21'0 0.0
2017-Dec-15 07:00N 30°04' W 093°21'0 0.0
2017-Dec-15 06:31N 30°04' W 093°21'0 0.0
2017-Dec-15 06:00N 30°04' W 093°21'0 0.0
2017-Dec-15 05:30N 30°04' W 093°21'0 0.0
2017-Dec-15 05:01N 30°04' W 093°21'0 0.0
2017-Dec-15 04:31N 30°04' W 093°21'0 0.0
2017-Dec-15 04:01N 30°04' W 093°21'0 0.0
2017-Dec-15 02:31N 30°04' W 093°21'0 0.0
2017-Dec-15 01:01N 30°04' W 093°21'0 0.0
2017-Dec-15 00:30N 30°04' W 093°21'0 0.0
2017-Dec-14 18:28N 30°04' W 093°21'0 0.0
2017-Dec-14 18:00N 30°04' W 093°21'0 0.0
2017-Dec-14 17:31N 30°04' W 093°21'0 0.0
2017-Dec-14 17:00N 30°04' W 093°21'0 0.0
2017-Dec-14 16:30N 30°04' W 093°21'0 0.0
2017-Dec-14 16:01N 30°04' W 093°21'0 0.0
2017-Dec-14 14:53N 30°04' W 093°21'0 0.0
2017-Dec-14 14:25N 30°04' W 093°21'0 0.0
2017-Dec-14 14:01N 30°04' W 093°21'0 0.0
2017-Dec-14 13:29N 30°04' W 093°21'0 0.0
2017-Dec-14 13:01N 30°04' W 093°21'0 0.0
2017-Dec-14 12:31N 30°04' W 093°21'0 0.0
2017-Dec-14 12:01N 30°04' W 093°21'0 0.0
2017-Dec-14 11:30N 30°04' W 093°21'0 0.0
2017-Dec-14 11:00N 30°04' W 093°21'0 0.0
2017-Dec-14 10:30N 30°04' W 093°21'0 0.0
2017-Dec-14 09:58N 30°04' W 093°21'0 0.0
2017-Dec-14 09:31N 30°04' W 093°21'0 0.0
2017-Dec-14 09:01N 30°04' W 093°21'0 0.0
2017-Dec-14 08:31N 30°04' W 093°21'0 0.0
2017-Dec-14 08:00N 30°04' W 093°21'0 0.0
2017-Dec-14 07:31N 30°04' W 093°21'0 0.0
2017-Dec-14 06:59N 30°04' W 093°21'0 0.0
2017-Dec-14 06:30N 30°04' W 093°21'0 0.0
2017-Dec-14 06:01N 30°04' W 093°21'0 0.0
2017-Dec-14 05:31N 30°04' W 093°21'0 0.0
2017-Dec-14 05:01N 30°04' W 093°21'0 0.0
2017-Dec-14 04:31N 30°04' W 093°21'0 0.0
2017-Dec-14 04:00N 30°04' W 093°21'0 0.0
2017-Dec-14 03:30N 30°04' W 093°21'0 0.0
2017-Dec-14 03:00N 30°04' W 093°21'0 0.0
2017-Dec-14 02:31N 30°04' W 093°21'0 0.0
2017-Dec-14 02:01N 30°04' W 093°21'0 0.0
2017-Dec-14 01:30N 30°04' W 093°21'0 0.0
2017-Dec-14 01:01N 30°04' W 093°21'0 0.0
2017-Dec-14 00:30N 30°04' W 093°21'0 0.0
2017-Dec-14 00:00N 30°04' W 093°21'0 0.0
2017-Dec-13 23:31N 30°04' W 093°21'0 0.0
2017-Dec-13 23:01N 30°04' W 093°21'0 0.0
2017-Dec-13 22:30N 30°04' W 093°21'0 0.0
2017-Dec-13 22:01N 30°04' W 093°21'0 0.0
2017-Dec-13 21:30N 30°04' W 093°21'0 0.0
2017-Dec-13 21:00N 30°04' W 093°21'0 0.0
2017-Dec-13 20:30N 30°04' W 093°21'0 0.0
2017-Dec-13 20:01N 30°04' W 093°21'0 0.0
2017-Dec-13 19:31N 30°04' W 093°21'0 0.0
2017-Dec-13 19:00N 30°04' W 093°21'0 0.0
2017-Dec-13 18:31N 30°04' W 093°21'0 0.0
2017-Dec-13 18:00N 30°04' W 093°21'0 0.0
2017-Dec-13 17:31N 30°04' W 093°21'1 1.2
2017-Dec-13 17:01N 30°04' W 093°21'0 0.0
2017-Dec-13 16:31N 30°04' W 093°21'0 0.0
2017-Dec-13 16:01N 30°04' W 093°21'0 0.0
2017-Dec-13 15:31N 30°04' W 093°21'0 0.0
2017-Dec-13 15:01N 30°04' W 093°21'0 0.0
2017-Dec-13 14:31N 30°04' W 093°21'0 0.5
2017-Dec-13 14:00N 30°04' W 093°21'0 0.7
2017-Dec-13 13:30N 30°04' W 093°21'0 0.0
2017-Dec-13 13:01N 30°04' W 093°21'0 0.0
2017-Dec-13 12:31N 30°04' W 093°21'0 0.0
2017-Dec-13 12:01N 30°04' W 093°21'0 0.0
2017-Dec-13 11:31N 30°04' W 093°21'0 0.0
2017-Dec-13 11:01N 30°04' W 093°21'0 0.0
2017-Dec-13 10:31N 30°04' W 093°21'0 0.0
2017-Dec-13 10:01N 30°04' W 093°21'0 0.0
2017-Dec-13 09:30N 30°04' W 093°21'0 0.0
2017-Dec-13 09:00N 30°04' W 093°21'0 0.0
2017-Dec-13 08:31N 30°04' W 093°21'0 0.0
2017-Dec-13 08:01N 30°04' W 093°21'0 0.0
2017-Dec-13 07:30N 30°04' W 093°21'0 0.0
2017-Dec-13 07:01N 30°04' W 093°21'0 0.0
2017-Dec-13 06:30N 30°04' W 093°21'0 0.0
2017-Dec-13 06:01N 30°04' W 093°21'0 0.0
2017-Dec-13 05:30N 30°04' W 093°21'0 0.0
2017-Dec-13 05:01N 30°04' W 093°21'0 0.0
2017-Dec-13 04:30N 30°04' W 093°21'0 0.0
2017-Dec-13 04:01N 30°04' W 093°21'0 0.0
2017-Dec-13 03:30N 30°04' W 093°21'0 0.0
2017-Dec-13 03:00N 30°04' W 093°21'0 0.0
2017-Dec-13 02:31N 30°04' W 093°21'0 0.0
2017-Dec-13 02:01N 30°04' W 093°21'0 0.0
2017-Dec-13 01:30N 30°04' W 093°21'0 0.0
2017-Dec-13 01:01N 30°04' W 093°21'0 0.0
2017-Dec-13 00:31N 30°04' W 093°21'0 0.0
2017-Dec-13 00:00N 30°04' W 093°21'0 0.1
2017-Dec-12 23:30N 30°04' W 093°21'0 0.1
2017-Dec-12 23:00N 30°04' W 093°21'0 0.0
2017-Dec-12 22:30N 30°04' W 093°21'0 0.0
2017-Dec-12 22:00N 30°04' W 093°21'0 0.0
2017-Dec-12 21:30N 30°04' W 093°21'0 0.0
2017-Dec-12 21:01N 30°04' W 093°21'0 0.0
2017-Dec-12 20:31N 30°04' W 093°21'0 0.0
2017-Dec-12 20:01N 30°04' W 093°21'0 0.0
2017-Dec-12 19:30N 30°04' W 093°21'0 0.0
2017-Dec-12 19:01N 30°04' W 093°21'0 0.0
2017-Dec-12 18:31N 30°04' W 093°21'0 0.0
2017-Dec-12 18:00N 30°04' W 093°21'0 0.0
2017-Dec-12 17:30N 30°04' W 093°21'0 0.0
2017-Dec-12 17:00N 30°04' W 093°21'0 0.0
2017-Dec-12 16:31N 30°04' W 093°21'0 0.0
2017-Dec-12 16:01N 30°04' W 093°21'0 0.0
2017-Dec-12 15:30N 30°04' W 093°21'0 0.0
2017-Dec-12 15:01N 30°04' W 093°21'0 0.0
2017-Dec-12 14:31N 30°04' W 093°21'0 0.0
2017-Dec-12 14:00N 30°04' W 093°21'0 0.0
2017-Dec-12 13:30N 30°04' W 093°21'0 0.0
2017-Dec-12 13:01N 30°04' W 093°21'0 0.0
2017-Dec-12 12:31N 30°04' W 093°21'0 0.0
2017-Dec-12 12:01N 30°04' W 093°21'0 0.0
2017-Dec-12 11:07N 30°04' W 093°21'0 0.0
2017-Dec-12 11:00N 30°04' W 093°21'0 0.0
2017-Dec-12 10:31N 30°04' W 093°21'0 0.0
2017-Dec-12 10:01N 30°04' W 093°21'0 0.0
2017-Dec-12 08:48N 30°04' W 093°21'4 0.3
2017-Dec-11 20:33N 30°08' W 093°19'0 0.0
2017-Dec-11 19:40N 30°08' W 093°19'0 0.0
2017-Dec-11 19:30N 30°08' W 093°19'0 0.0
2017-Dec-11 19:00N 30°08' W 093°19'0 0.0
2017-Dec-11 18:30N 30°08' W 093°19'0 0.0
2017-Dec-11 18:00N 30°08' W 093°19'0 0.0
2017-Dec-11 17:31N 30°08' W 093°19'0 0.0
2017-Dec-11 17:01N 30°08' W 093°19'0 0.0
2017-Dec-11 16:30N 30°08' W 093°19'0 0.0
2017-Dec-11 16:00N 30°08' W 093°19'0 0.0
2017-Dec-11 15:31N 30°08' W 093°19'0 0.3
2017-Dec-11 14:29N 30°08' W 093°20'0 0.0
2017-Dec-11 14:01N 30°08' W 093°20'0 0.0
2017-Dec-11 13:31N 30°08' W 093°20'0 0.0
2017-Dec-11 13:00N 30°08' W 093°20'0 0.0
2017-Dec-11 12:30N 30°08' W 093°20'0 0.2
2017-Dec-11 12:01N 30°08' W 093°20'2 3.2
2017-Dec-11 11:31N 30°06' W 093°20'2 3.3
2017-Dec-11 11:00N 30°05' W 093°20'0 0.1
2017-Dec-11 10:31N 30°05' W 093°20'0 0.0
2017-Dec-11 10:01N 30°05' W 093°20'0 0.0
2017-Dec-11 09:30N 30°05' W 093°20'0 0.0
2017-Dec-11 09:01N 30°05' W 093°20'0 0.0
2017-Dec-11 08:31N 30°05' W 093°20'0 0.0
2017-Dec-11 08:01N 30°05' W 093°20'0 0.0
2017-Dec-11 07:30N 30°05' W 093°20'0 0.0
2017-Dec-11 07:00N 30°05' W 093°20'0 0.0
2017-Dec-11 06:31N 30°05' W 093°20'0 0.0
2017-Dec-11 06:01N 30°05' W 093°20'0 0.0
2017-Dec-11 05:31N 30°05' W 093°20'0 0.0
2017-Dec-11 05:00N 30°05' W 093°20'0 0.0
2017-Dec-11 04:31N 30°05' W 093°20'0 0.0
2017-Dec-11 04:00N 30°05' W 093°20'0 0.0
2017-Dec-11 03:31N 30°05' W 093°20'0 0.0
2017-Dec-11 03:01N 30°05' W 093°20'0 0.0
2017-Dec-11 02:31N 30°05' W 093°20'0 0.0
2017-Dec-11 02:01N 30°05' W 093°20'0 0.0
2017-Dec-11 01:30N 30°05' W 093°20'0 0.0
2017-Dec-11 01:01N 30°05' W 093°20'0 0.0
2017-Dec-11 00:30N 30°05' W 093°20'0 0.0
2017-Dec-11 00:00N 30°05' W 093°20'0 0.0
2017-Dec-10 23:30N 30°05' W 093°20'0 0.0
2017-Dec-10 23:00N 30°05' W 093°20'0 0.0
2017-Dec-10 22:31N 30°05' W 093°20'0 0.0
2017-Dec-10 22:01N 30°05' W 093°20'0 0.0
2017-Dec-10 21:31N 30°05' W 093°20'0 0.0
2017-Dec-10 21:01N 30°05' W 093°20'0 0.0
2017-Dec-10 20:31N 30°05' W 093°20'0 0.0
2017-Dec-10 20:01N 30°05' W 093°20'0 0.0
2017-Dec-10 19:30N 30°05' W 093°20'0 0.0
2017-Dec-10 19:00N 30°05' W 093°20'0 0.0
2017-Dec-10 18:31N 30°05' W 093°20'0 0.0
2017-Dec-10 18:00N 30°05' W 093°20'0 0.0
2017-Dec-10 17:30N 30°05' W 093°20'0 0.0
2017-Dec-10 17:01N 30°05' W 093°20'0 0.0
2017-Dec-10 16:30N 30°05' W 093°20'0 0.0
2017-Dec-10 16:00N 30°05' W 093°20'0 0.0
2017-Dec-10 15:31N 30°05' W 093°20'0 0.0
2017-Dec-10 15:00N 30°05' W 093°20'0 0.0
2017-Dec-10 14:31N 30°05' W 093°20'0 0.0
2017-Dec-10 14:00N 30°05' W 093°20'0 0.0
2017-Dec-10 13:31N 30°05' W 093°20'0 0.0
2017-Dec-10 13:00N 30°05' W 093°20'0 0.0
2017-Dec-10 12:30N 30°05' W 093°20'0 0.0
2017-Dec-10 12:01N 30°05' W 093°20'0 0.0
2017-Dec-10 11:31N 30°05' W 093°20'0 0.0
2017-Dec-10 11:01N 30°05' W 093°20'0 0.0
2017-Dec-10 10:30N 30°05' W 093°20'0 0.0
2017-Dec-10 10:01N 30°05' W 093°20'0 0.0
2017-Dec-10 09:31N 30°05' W 093°20'0 0.0
2017-Dec-10 09:00N 30°05' W 093°20'0 0.0
2017-Dec-10 08:31N 30°05' W 093°20'0 0.0
2017-Dec-10 08:01N 30°05' W 093°20'0 0.0
2017-Dec-10 07:31N 30°05' W 093°20'0 0.0
2017-Dec-10 07:01N 30°05' W 093°20'0 0.0
2017-Dec-10 06:30N 30°05' W 093°20'0 0.0
2017-Dec-10 06:01N 30°05' W 093°20'0 0.0
2017-Dec-10 05:31N 30°05' W 093°20'0 0.0
2017-Dec-10 05:01N 30°05' W 093°20'0 0.0
2017-Dec-10 04:31N 30°05' W 093°20'0 0.0
2017-Dec-10 04:01N 30°05' W 093°20'0 0.0
2017-Dec-10 03:31N 30°05' W 093°20'0 0.0
2017-Dec-10 03:01N 30°05' W 093°20'0 0.0
2017-Dec-10 02:31N 30°05' W 093°20'0 0.0
2017-Dec-10 02:00N 30°05' W 093°20'0 0.0
2017-Dec-10 01:31N 30°05' W 093°20'0 0.0
2017-Dec-10 01:00N 30°05' W 093°20'0 0.0
2017-Dec-10 00:30N 30°05' W 093°20'0 0.0
2017-Dec-10 00:00N 30°05' W 093°20'0 0.0
2017-Dec-09 23:30N 30°05' W 093°20'0 0.0
2017-Dec-09 23:01N 30°05' W 093°20'0 0.0
2017-Dec-09 22:31N 30°05' W 093°20'0 0.0
2017-Dec-09 22:01N 30°05' W 093°20'0 0.0
2017-Dec-09 21:31N 30°05' W 093°20'0 0.0
2017-Dec-09 21:01N 30°05' W 093°20'0 0.0
2017-Dec-09 20:30N 30°05' W 093°20'0 0.0
2017-Dec-09 20:01N 30°05' W 093°20'0 0.0
2017-Dec-09 19:30N 30°05' W 093°20'0 0.0
2017-Dec-09 19:00N 30°05' W 093°20'0 0.0
2017-Dec-09 18:31N 30°05' W 093°20'0 0.0
2017-Dec-09 18:01N 30°05' W 093°20'0 0.0
2017-Dec-09 17:31N 30°05' W 093°20'0 0.8
2017-Dec-09 17:00N 30°05' W 093°20'0 0.4
2017-Dec-09 16:31N 30°05' W 093°20'0 0.0
2017-Dec-09 16:00N 30°05' W 093°20'0 0.0
2017-Dec-09 15:31N 30°05' W 093°20'0 0.0
2017-Dec-09 15:00N 30°05' W 093°20'0 0.9
2017-Dec-09 14:31N 30°05' W 093°20'0 0.0
2017-Dec-09 14:01N 30°05' W 093°20'2 3.4
2017-Dec-09 13:31N 30°04' W 093°22'3 5.1
2017-Dec-09 13:00N 30°04' W 093°25'3 5.5
2017-Dec-09 12:31N 30°04' W 093°28'3 5.4
2017-Dec-09 12:00N 30°04' W 093°31'3 5.4
2017-Dec-09 11:31N 30°04' W 093°34'2 4.6
2017-Dec-09 11:01N 30°04' W 093°37'3 5.9
2017-Dec-09 10:30N 30°04' W 093°40'3 5.8
2017-Dec-09 10:00N 30°03' W 093°43'3 6.0
2017-Dec-09 09:31N 30°01' W 093°46'18 0.4
2017-Dec-07 13:28N 29°44' W 093°53'0 0.0
2017-Dec-07 12:58N 29°44' W 093°53'0 0.0
2017-Dec-07 12:30N 29°44' W 093°53'23 2.3
2017-Dec-07 02:32N 30°04' W 093°40'1 6.0
2017-Dec-07 02:24N 30°04' W 093°39'2 5.9
2017-Dec-07 02:01N 30°04' W 093°36'  

Dump ship's entire track history